createdAt,value
2019-05-30T00:00:43.840Z,72.74
2019-05-30T00:04:48.738Z,73.78
2019-05-30T00:08:54.337Z,73.72
2019-05-30T00:13:00.634Z,74.32
2019-05-30T00:17:05.694Z,74.15
2019-05-30T00:21:10.585Z,74.35
2019-05-30T00:25:15.486Z,74.30
2019-05-30T00:29:21.353Z,73.98
2019-05-30T00:33:26.253Z,73.73
2019-05-30T00:37:31.153Z,73.08
2019-05-30T00:41:37.011Z,72.79
2019-05-30T00:45:41.903Z,71.37
2019-05-30T00:49:46.805Z,69.66
2019-05-30T00:53:51.704Z,68.32
2019-05-30T00:57:56.785Z,67.19
2019-05-30T01:02:02.801Z,66.43
2019-05-30T01:06:08.919Z,65.77
2019-05-30T01:10:14.091Z,65.48
2019-05-30T01:14:19.945Z,64.52
2019-05-30T01:18:24.849Z,64.52
2019-05-30T01:22:29.732Z,64.41
2019-05-30T01:26:34.640Z,64.43
2019-05-30T01:30:39.549Z,64.76
2019-05-30T01:34:44.444Z,65.13
2019-05-30T01:38:49.346Z,65.66
2019-05-30T01:42:54.231Z,65.95
2019-05-30T01:47:00.143Z,66.41
2019-05-30T01:51:05.020Z,66.89
2019-05-30T01:55:11.831Z,67.49
2019-05-30T01:59:16.725Z,67.99
2019-05-30T02:03:21.618Z,68.32
2019-05-30T02:07:26.527Z,68.72
2019-05-30T02:11:31.431Z,69.10
2019-05-30T02:15:36.324Z,69.65
2019-05-30T02:19:41.224Z,70.24
2019-05-30T02:23:46.112Z,70.91
2019-05-30T02:27:51.013Z,71.76
2019-05-30T02:31:55.912Z,71.93
2019-05-30T02:36:01.719Z,72.65
2019-05-30T02:40:12.351Z,73.12
2019-05-30T02:44:15.723Z,74.00
2019-05-30T02:48:20.689Z,74.97
2019-05-30T02:52:25.571Z,75.20
2019-05-30T02:56:30.484Z,75.99
2019-05-30T03:00:37.026Z,75.70
2019-05-30T03:04:41.911Z,76.16
2019-05-30T03:08:47.445Z,75.92
2019-05-30T03:12:52.528Z,76.14
2019-05-30T03:17:28.150Z,76.02
2019-05-30T03:21:33.116Z,75.87
2019-05-30T03:25:38.020Z,75.69
2019-05-30T03:29:42.913Z,75.29
2019-05-30T03:33:47.886Z,75.14
2019-05-30T03:37:52.779Z,75.01
2019-05-30T03:41:57.674Z,74.94
2019-05-30T03:46:05.932Z,74.83
2019-05-30T03:50:17.067Z,74.56
2019-05-30T03:54:20.274Z,74.25
2019-05-30T03:58:40.300Z,73.76
2019-05-30T04:02:57.091Z,73.23
2019-05-30T04:07:06.892Z,71.87
2019-05-30T04:11:16.855Z,66.55
2019-05-30T04:15:28.650Z,60.06
2019-05-30T04:19:33.548Z,54.85
2019-05-30T04:23:38.464Z,52.75
2019-05-30T04:27:43.381Z,51.15
2019-05-30T04:31:48.354Z,48.51
2019-05-30T04:35:53.195Z,46.05
2019-05-30T04:39:58.099Z,44.58
2019-05-30T04:44:03.006Z,41.85
2019-05-30T04:48:07.916Z,42.12
2019-05-30T04:52:16.241Z,41.38
2019-05-30T04:56:21.720Z,41.69
2019-05-30T05:00:25.998Z,42.04
2019-05-30T05:04:30.893Z,41.55
2019-05-30T05:08:35.794Z,40.36
2019-05-30T05:12:40.689Z,39.23
2019-05-30T05:16:45.582Z,37.91
2019-05-30T05:20:50.494Z,36.48
2019-05-30T05:24:55.389Z,35.02
2019-05-30T05:29:00.278Z,34.96
2019-05-30T05:33:05.446Z,34.43
2019-05-30T05:37:10.330Z,34.16
2019-05-30T05:41:16.108Z,34.31
2019-05-30T05:45:22.796Z,34.38
2019-05-30T05:49:28.868Z,33.35
2019-05-30T05:53:33.909Z,34.12
2019-05-30T05:57:38.800Z,33.58
2019-05-30T06:01:43.818Z,31.83
2019-05-30T06:05:52.984Z,32.10
2019-05-30T06:09:55.324Z,31.54
2019-05-30T06:14:00.218Z,31.14
2019-05-30T06:18:05.177Z,30.97
2019-05-30T06:22:10.079Z,30.94
2019-05-30T06:26:14.995Z,30.86
2019-05-30T06:30:22.363Z,32.40
2019-05-30T06:34:37.998Z,33.40
2019-05-30T06:38:33.926Z,33.60
2019-05-30T06:42:38.820Z,33.58
2019-05-30T06:46:43.717Z,32.33
2019-05-30T06:50:48.617Z,32.12
2019-05-30T06:54:53.516Z,31.70
2019-05-30T06:58:58.421Z,31.46
2019-05-30T07:03:03.336Z,31.84
2019-05-30T07:07:08.377Z,32.47
2019-05-30T07:11:13.396Z,33.71
2019-05-30T07:15:18.627Z,35.39
2019-05-30T07:19:23.526Z,36.94
2019-05-30T07:23:28.414Z,37.90
2019-05-30T07:27:34.139Z,38.70
2019-05-30T07:31:39.095Z,39.38
2019-05-30T07:35:44.001Z,40.71
2019-05-30T07:39:48.914Z,40.70
2019-05-30T07:43:53.873Z,40.93
2019-05-30T07:47:58.796Z,40.75
2019-05-30T07:52:03.674Z,40.29
2019-05-30T07:56:08.568Z,40.63
2019-05-30T08:00:16.242Z,40.39
2019-05-30T08:04:21.138Z,40.14
2019-05-30T08:08:26.042Z,40.19
2019-05-30T08:12:32.018Z,40.57
2019-05-30T08:16:37.516Z,41.31
2019-05-30T08:20:42.514Z,42.55
2019-05-30T08:24:48.468Z,42.38
2019-05-30T08:28:53.372Z,40.55
2019-05-30T08:32:58.287Z,39.12
2019-05-30T08:37:03.186Z,39.24
2019-05-30T08:41:08.086Z,38.73
2019-05-30T08:45:13.309Z,38.33
2019-05-30T08:49:18.213Z,38.60
2019-05-30T08:53:23.107Z,39.71
2019-05-30T08:57:28.016Z,39.34
2019-05-30T09:01:32.924Z,39.26
2019-05-30T09:05:38.683Z,39.19
2019-05-30T09:09:44.431Z,40.25
2019-05-30T09:13:49.318Z,41.93
2019-05-30T09:17:54.218Z,41.95
2019-05-30T09:21:59.124Z,42.19
2019-05-30T09:26:04.037Z,41.54
2019-05-30T09:30:11.671Z,39.95
2019-05-30T09:34:16.578Z,39.57
2019-05-30T09:38:21.491Z,39.40
2019-05-30T09:42:26.397Z,38.43
2019-05-30T09:46:31.288Z,38.72
2019-05-30T09:50:36.179Z,38.56
2019-05-30T09:54:41.232Z,38.40
2019-05-30T09:58:47.771Z,38.17
2019-05-30T10:02:52.767Z,38.29
2019-05-30T10:06:57.647Z,38.73
2019-05-30T10:11:02.622Z,38.86
2019-05-30T10:15:11.305Z,40.71
2019-05-30T10:19:16.255Z,39.09
2019-05-30T10:23:21.163Z,39.05
2019-05-30T10:27:26.061Z,39.01
2019-05-30T10:31:30.952Z,38.92
2019-05-30T10:35:35.853Z,39.24
2019-05-30T10:39:40.753Z,39.07
2019-05-30T10:43:46.444Z,39.31
2019-05-30T10:47:53.644Z,39.46
2019-05-30T10:51:59.450Z,39.07
2019-05-30T10:56:04.771Z,39.06
2019-05-30T11:00:12.460Z,38.30
2019-05-30T11:04:17.426Z,38.00
2019-05-30T11:08:27.813Z,37.67
2019-05-30T11:12:32.702Z,37.67
2019-05-30T11:16:37.598Z,36.95
2019-05-30T11:20:42.575Z,37.00
2019-05-30T11:24:48.191Z,36.80
2019-05-30T11:28:53.145Z,36.46
2019-05-30T11:32:59.117Z,36.42
2019-05-30T11:37:18.203Z,36.12
2019-05-30T11:41:11.025Z,35.92
2019-05-30T11:45:16.530Z,35.84
2019-05-30T11:49:21.432Z,36.19
2019-05-30T11:53:26.353Z,36.20
2019-05-30T11:57:31.408Z,35.91
2019-05-30T12:01:36.322Z,35.95
2019-05-30T12:05:41.225Z,35.85
2019-05-30T12:09:46.121Z,36.03
2019-05-30T12:13:51.738Z,36.70
2019-05-30T12:17:57.489Z,37.02
2019-05-30T12:22:02.468Z,37.44
2019-05-30T12:26:08.335Z,37.75
2019-05-30T12:30:15.117Z,37.99
2019-05-30T12:34:20.987Z,38.34
2019-05-30T12:38:25.876Z,38.46
2019-05-30T12:42:30.846Z,38.47
2019-05-30T12:46:35.743Z,38.54
2019-05-30T12:50:40.648Z,38.80
2019-05-30T12:54:45.545Z,38.82
2019-05-30T12:58:50.443Z,38.89
2019-05-30T13:02:55.364Z,38.23
2019-05-30T13:07:01.307Z,37.82
2019-05-30T13:11:06.242Z,38.03
2019-05-30T13:15:11.611Z,38.76
2019-05-30T13:19:17.266Z,38.99
2019-05-30T13:23:22.172Z,38.63
2019-05-30T13:27:27.056Z,39.20
2019-05-30T13:31:33.108Z,39.16
2019-05-30T13:35:38.009Z,39.76
2019-05-30T13:39:42.903Z,40.25
2019-05-30T13:43:47.813Z,40.91
2019-05-30T13:47:52.719Z,41.04
2019-05-30T13:51:58.832Z,41.09
2019-05-30T13:56:03.801Z,40.88
2019-05-30T14:00:10.611Z,40.55
2019-05-30T14:04:17.277Z,40.64
2019-05-30T14:08:22.182Z,40.40
2019-05-30T14:12:27.081Z,40.05
2019-05-30T14:16:31.977Z,40.22
2019-05-30T14:20:36.948Z,40.49
2019-05-30T14:24:41.834Z,40.43
2019-05-30T14:28:46.739Z,40.40
2019-05-30T14:32:51.650Z,40.62
2019-05-30T14:36:56.548Z,40.71
2019-05-30T14:41:02.815Z,40.85
2019-05-30T14:45:08.864Z,40.92
2019-05-30T14:49:13.759Z,40.76
2019-05-30T14:53:18.652Z,41.04
2019-05-30T14:57:23.559Z,40.87
2019-05-30T15:01:28.523Z,40.94
2019-05-30T15:05:33.415Z,41.43
2019-05-30T15:09:38.308Z,41.05
2019-05-30T15:13:43.212Z,41.04
2019-05-30T15:17:48.177Z,41.22
2019-05-30T15:21:53.088Z,40.54
2019-05-30T15:25:57.971Z,40.88
2019-05-30T15:30:03.507Z,41.07
2019-05-30T15:34:08.564Z,41.37
2019-05-30T15:38:15.082Z,41.54
2019-05-30T15:42:20.039Z,42.23
2019-05-30T15:46:24.939Z,42.32
2019-05-30T15:50:29.836Z,42.36
2019-05-30T15:54:34.745Z,42.20
2019-05-30T15:58:39.645Z,42.51
2019-05-30T16:02:44.552Z,42.97
2019-05-30T16:06:49.442Z,43.53
2019-05-30T16:10:54.335Z,43.50
2019-05-30T16:14:59.244Z,43.70
2019-05-30T16:19:15.565Z,43.96
2019-05-30T16:23:10.744Z,44.24
2019-05-30T16:27:15.846Z,44.95
2019-05-30T16:31:22.291Z,44.75
2019-05-30T16:35:27.371Z,44.87
2019-05-30T16:39:32.268Z,44.92
2019-05-30T16:43:37.181Z,44.92
2019-05-30T16:47:42.078Z,45.21
2019-05-30T16:51:46.966Z,45.46
2019-05-30T16:55:51.859Z,45.85
2019-05-30T16:59:56.766Z,46.42
2019-05-30T17:04:01.677Z,46.67
2019-05-30T17:08:06.656Z,46.99
2019-05-30T17:12:11.545Z,47.00
2019-05-30T17:16:16.462Z,46.91
2019-05-30T17:20:22.575Z,46.79
2019-05-30T17:24:27.477Z,47.14
2019-05-30T17:28:32.372Z,47.09
2019-05-30T17:32:37.262Z,47.34
2019-05-30T17:36:42.162Z,47.98
2019-05-30T17:40:49.629Z,48.78
2019-05-30T17:44:53.655Z,49.05
2019-05-30T17:48:58.558Z,49.32
2019-05-30T17:53:03.452Z,49.07
2019-05-30T17:57:08.360Z,49.06
2019-05-30T18:01:13.313Z,48.94
2019-05-30T18:05:18.549Z,49.20
2019-05-30T18:09:23.457Z,49.45
2019-05-30T18:13:29.246Z,50.06
2019-05-30T18:17:34.300Z,50.62
2019-05-30T18:21:39.206Z,51.44
2019-05-30T18:25:44.112Z,51.60
2019-05-30T18:29:49.018Z,52.24
2019-05-30T18:33:53.907Z,52.74
2019-05-30T18:38:01.788Z,52.86
2019-05-30T18:42:05.539Z,53.34
2019-05-30T18:46:10.449Z,53.86
2019-05-30T18:50:15.428Z,54.43
2019-05-30T18:54:20.321Z,54.46
2019-05-30T18:58:25.226Z,54.13
2019-05-30T19:02:31.273Z,54.47
2019-05-30T19:06:36.357Z,54.97
2019-05-30T19:10:41.251Z,55.43
2019-05-30T19:14:46.159Z,55.93
2019-05-30T19:18:51.126Z,56.21
2019-05-30T19:22:56.029Z,56.57
2019-05-30T19:27:00.929Z,56.72
2019-05-30T19:31:05.829Z,56.74
2019-05-30T19:35:11.059Z,56.99
2019-05-30T19:39:15.958Z,57.13
2019-05-30T19:43:20.867Z,57.14
2019-05-30T19:47:25.761Z,57.29
2019-05-30T19:51:31.491Z,57.33
2019-05-30T19:55:37.561Z,57.87
2019-05-30T19:59:42.589Z,58.24
2019-05-30T20:04:17.658Z,59.35
2019-05-30T20:08:22.557Z,60.13
2019-05-30T20:12:27.467Z,60.99
2019-05-30T20:16:33.745Z,61.92
2019-05-30T20:20:54.157Z,62.74
2019-05-30T20:24:45.332Z,63.17
2019-05-30T20:28:50.252Z,63.48
2019-05-30T20:32:55.137Z,63.72
2019-05-30T20:37:00.038Z,64.20
2019-05-30T20:41:04.954Z,64.63
2019-05-30T20:45:10.683Z,64.75
2019-05-30T20:49:15.587Z,64.99
2019-05-30T20:53:20.700Z,65.21
2019-05-30T20:57:55.578Z,65.48
2019-05-30T21:02:00.489Z,65.76
2019-05-30T21:06:05.375Z,66.45
2019-05-30T21:10:12.287Z,66.76
2019-05-30T21:14:17.934Z,67.46
2019-05-30T21:18:24.404Z,67.73
2019-05-30T21:22:29.301Z,67.85
2019-05-30T21:26:34.189Z,67.92
2019-05-30T21:30:39.090Z,68.07
2019-05-30T21:34:44.559Z,68.32
2019-05-30T21:38:50.649Z,68.46
2019-05-30T21:43:05.796Z,68.62
2019-05-30T21:47:02.154Z,68.78
2019-05-30T21:51:07.052Z,68.93
2019-05-30T21:55:12.030Z,68.77
2019-05-30T21:59:16.935Z,68.87
2019-05-30T22:03:21.838Z,69.19
2019-05-30T22:07:26.734Z,69.27
2019-05-30T22:11:31.639Z,69.25
2019-05-30T22:15:36.542Z,69.37
2019-05-30T22:19:41.715Z,69.79
2019-05-30T22:23:46.615Z,69.54
2019-05-30T22:27:52.539Z,69.54
2019-05-30T22:31:57.487Z,69.74
2019-05-30T22:36:02.392Z,69.74
2019-05-30T22:40:07.288Z,69.68
2019-05-30T22:44:12.194Z,70.06
2019-05-30T22:48:17.083Z,70.23
2019-05-30T22:52:21.987Z,70.53
2019-05-30T22:56:27.861Z,71.45
2019-05-30T23:00:32.838Z,71.69
2019-05-30T23:04:37.748Z,71.75
2019-05-30T23:08:42.643Z,72.01
2019-05-30T23:12:47.751Z,72.18
2019-05-30T23:16:52.619Z,72.48
2019-05-30T23:20:57.516Z,72.78
2019-05-30T23:25:02.413Z,72.70
2019-05-30T23:29:07.302Z,73.02
2019-05-30T23:33:12.214Z,73.14
2019-05-30T23:37:17.100Z,73.38
2019-05-30T23:41:22.006Z,73.70
2019-05-30T23:45:26.903Z,73.86
2019-05-30T23:49:31.793Z,73.98
2019-05-30T23:53:36.692Z,74.07
2019-05-30T23:57:41.583Z,73.95
